createdAt,value
2022-09-23T00:02:02.608Z,101719.47
2022-09-23T00:04:59.269Z,101718.66
2022-09-23T00:07:57.231Z,101725.97
2022-09-23T00:10:54.354Z,101722.16
2022-09-23T00:13:53.217Z,101717.81
2022-09-23T00:16:50.584Z,101714.00
2022-09-23T00:19:48.376Z,101699.53
2022-09-23T00:22:45.632Z,101705.00
2022-09-23T00:25:42.518Z,101696.38
2022-09-23T00:28:39.646Z,101693.56
2022-09-23T00:31:36.844Z,101691.13
2022-09-23T00:34:33.937Z,101713.16
2022-09-23T00:37:31.560Z,101696.88
2022-09-23T00:40:28.419Z,101705.88
2022-09-23T00:43:43.360Z,101694.63
2022-09-23T00:46:41.316Z,101692.38
2022-09-23T00:49:38.878Z,101684.59
2022-09-23T00:52:36.829Z,101689.38
2022-09-23T00:55:39.486Z,101677.09
2022-09-23T00:58:37.467Z,101676.25
2022-09-23T01:01:34.671Z,101682.72
2022-09-23T01:04:31.349Z,101671.44
2022-09-23T01:07:28.328Z,101674.28
2022-09-23T01:10:25.773Z,101672.47
2022-09-23T01:13:59.601Z,101676.94
2022-09-23T01:17:22.869Z,101672.59
2022-09-23T01:20:28.682Z,101663.38
2022-09-23T01:24:08.949Z,101661.88
2022-09-23T01:27:15.467Z,101650.41
2022-09-23T01:30:33.464Z,101654.56
2022-09-23T01:33:56.160Z,101666.53
2022-09-23T01:36:53.096Z,101651.94
2022-09-23T01:40:06.270Z,101649.94
2022-09-23T01:43:09.528Z,101650.91
2022-09-23T01:46:28.063Z,101644.75
2022-09-23T01:49:34.460Z,101651.44
2022-09-23T01:52:38.951Z,101646.78
2022-09-23T01:55:39.513Z,101647.09
2022-09-23T01:58:46.873Z,101640.47
2022-09-23T02:01:46.854Z,101645.75
2022-09-23T02:04:50.503Z,101636.94
2022-09-23T02:08:08.802Z,101640.59
2022-09-23T02:11:08.799Z,101633.59
2022-09-23T02:14:17.836Z,101639.25
2022-09-23T02:17:17.341Z,101630.31
2022-09-23T02:20:15.886Z,101624.84
2022-09-23T02:23:14.570Z,101628.34
2022-09-23T02:26:11.914Z,101626.69
2022-09-23T02:29:28.370Z,101631.66
2022-09-23T02:32:42.914Z,101627.03
2022-09-23T02:35:44.153Z,101625.34
2022-09-23T02:38:52.846Z,101621.41
2022-09-23T02:42:21.061Z,101621.22
2022-09-23T02:45:18.646Z,101620.53
2022-09-23T02:48:22.286Z,101620.88
2022-09-23T02:51:19.694Z,101611.06
2022-09-23T02:54:18.453Z,101606.94
2022-09-23T02:57:15.506Z,101603.94
2022-09-23T03:00:13.272Z,101601.91
2022-09-23T03:03:27.822Z,101591.31
2022-09-23T03:06:39.474Z,101595.81
2022-09-23T03:09:54.794Z,101591.00
2022-09-23T03:13:12.305Z,101585.66
2022-09-23T03:16:18.461Z,101577.41
2022-09-23T03:19:27.531Z,101580.72
2022-09-23T03:22:33.134Z,101578.03
2022-09-23T03:25:31.811Z,101571.41
2022-09-23T03:28:28.733Z,101568.13
2022-09-23T03:31:25.700Z,101570.47
2022-09-23T03:34:28.007Z,101565.97
2022-09-23T03:37:55.888Z,101556.69
2022-09-23T03:40:53.356Z,101555.53
2022-09-23T03:43:53.298Z,101551.84
2022-09-23T03:46:50.792Z,101556.16
2022-09-23T03:49:48.640Z,101555.63
2022-09-23T03:52:46.449Z,101550.44
2022-09-23T03:55:47.186Z,101547.50
2022-09-23T03:58:46.530Z,101543.66
2022-09-23T04:01:46.170Z,101549.75
2022-09-23T04:04:44.121Z,101542.63
2022-09-23T04:07:42.455Z,101548.44
2022-09-23T04:10:41.613Z,101539.19
2022-09-23T04:13:38.634Z,101541.19
2022-09-23T04:16:35.671Z,101536.59
2022-09-23T04:19:32.793Z,101541.38
2022-09-23T04:22:29.636Z,101544.19
2022-09-23T04:25:26.650Z,101520.66
2022-09-23T04:28:23.566Z,101525.00
2022-09-23T04:31:20.392Z,101521.00
2022-09-23T04:34:18.383Z,101520.19
2022-09-23T04:37:15.861Z,101520.66
2022-09-23T04:40:12.653Z,101509.34
2022-09-23T04:43:13.423Z,101519.16
2022-09-23T04:46:11.641Z,101508.56
2022-09-23T04:49:08.990Z,101508.06
2022-09-23T04:52:05.800Z,101508.56
2022-09-23T04:55:02.511Z,101502.91
2022-09-23T04:57:59.913Z,101499.28
2022-09-23T05:01:04.959Z,101494.78
2022-09-23T05:04:05.270Z,101497.75
2022-09-23T05:07:03.566Z,101491.16
2022-09-23T05:10:00.794Z,101493.31
2022-09-23T05:12:58.896Z,101510.56
2022-09-23T05:16:03.873Z,101501.88
2022-09-23T05:19:00.455Z,101490.38
2022-09-23T05:21:58.009Z,101503.00
2022-09-23T05:24:54.559Z,101498.16
2022-09-23T05:27:52.111Z,101494.53
2022-09-23T05:30:51.910Z,101484.63
2022-09-23T05:33:52.045Z,101484.63
2022-09-23T05:36:48.747Z,101484.63
2022-09-23T05:39:45.814Z,101493.38
2022-09-23T05:42:42.693Z,101491.19
2022-09-23T05:45:39.718Z,101501.50
2022-09-23T05:48:36.970Z,101499.53
2022-09-23T05:51:34.390Z,101506.00
2022-09-23T05:54:31.753Z,101500.72
2022-09-23T05:57:29.399Z,101507.53
2022-09-23T06:00:26.421Z,101512.34
2022-09-23T06:03:23.959Z,101520.63
2022-09-23T06:06:23.394Z,101515.84
2022-09-23T06:09:20.939Z,101512.06
2022-09-23T06:12:20.011Z,101509.75
2022-09-23T06:15:16.977Z,101516.41
2022-09-23T06:18:13.783Z,101514.78
2022-09-23T06:21:13.396Z,101520.69
2022-09-23T06:24:15.430Z,101507.97
2022-09-23T06:27:15.110Z,101508.84
2022-09-23T06:30:12.623Z,101511.97
2022-09-23T06:33:10.189Z,101511.50
2022-09-23T06:36:08.134Z,101512.09
2022-09-23T06:39:04.867Z,101508.94
2022-09-23T06:42:01.892Z,101501.78
2022-09-23T06:44:59.400Z,101507.06
2022-09-23T06:47:57.907Z,101505.72
2022-09-23T06:50:54.542Z,101509.00
2022-09-23T06:53:52.574Z,101502.00
2022-09-23T06:56:49.792Z,101501.28
2022-09-23T06:59:46.757Z,101508.00
2022-09-23T07:02:43.824Z,101511.69
2022-09-23T07:05:42.140Z,101512.41
2022-09-23T07:08:42.024Z,101497.97
2022-09-23T07:11:40.244Z,101506.16
2022-09-23T07:14:37.946Z,101499.13
2022-09-23T07:17:35.107Z,101491.28
2022-09-23T07:20:32.153Z,101506.75
2022-09-23T07:23:28.556Z,101505.53
2022-09-23T07:26:26.071Z,101503.81
2022-09-23T07:29:22.824Z,101497.63
2022-09-23T07:32:20.041Z,101505.22
2022-09-23T07:35:17.118Z,101508.63
2022-09-23T07:38:13.713Z,101511.81
2022-09-23T07:41:11.809Z,101499.72
2022-09-23T07:44:11.665Z,101508.97
2022-09-23T07:47:08.585Z,101510.81
2022-09-23T07:50:08.732Z,101513.81
2022-09-23T07:53:08.638Z,101495.28
2022-09-23T07:56:06.617Z,101501.53
2022-09-23T07:59:05.281Z,101501.13
2022-09-23T08:02:02.697Z,101506.03
2022-09-23T08:04:59.790Z,101511.84
2022-09-23T08:07:56.911Z,101501.28
2022-09-23T08:11:01.195Z,101506.31
2022-09-23T08:13:57.662Z,101508.34
2022-09-23T08:16:54.883Z,101500.56
2022-09-23T08:19:51.926Z,101496.41
2022-09-23T08:22:50.941Z,101499.94
2022-09-23T08:25:48.240Z,101500.72
2022-09-23T08:28:45.662Z,101498.78
2022-09-23T08:31:43.086Z,101497.06
2022-09-23T08:34:40.076Z,101495.38
2022-09-23T08:37:37.081Z,101487.13
2022-09-23T08:40:35.672Z,101477.22
2022-09-23T08:43:34.116Z,101487.34
2022-09-23T08:46:37.723Z,101485.09
2022-09-23T08:50:01.498Z,101481.53
2022-09-23T08:53:01.427Z,101482.63
2022-09-23T08:55:59.632Z,101479.41
2022-09-23T08:59:02.358Z,101481.00
2022-09-23T09:02:01.011Z,101476.84
2022-09-23T09:05:00.399Z,101486.00
2022-09-23T09:07:58.432Z,101486.63
2022-09-23T09:10:58.185Z,101482.34
2022-09-23T09:14:01.209Z,101490.28
2022-09-23T09:17:02.019Z,101482.59
2022-09-23T09:20:23.334Z,101488.56
2022-09-23T09:23:28.476Z,101487.66
2022-09-23T09:26:30.487Z,101486.72
2022-09-23T09:29:35.269Z,101479.25
2022-09-23T09:32:46.259Z,101481.97
2022-09-23T09:35:54.465Z,101472.41
2022-09-23T09:38:53.366Z,101467.09
2022-09-23T09:41:52.007Z,101472.59
2022-09-23T09:44:58.690Z,101464.63
2022-09-23T09:48:17.634Z,101466.00
2022-09-23T09:51:20.488Z,101459.91
2022-09-23T09:54:23.422Z,101463.97
2022-09-23T09:57:35.315Z,101457.13
2022-09-23T10:00:52.747Z,101455.81
2022-09-23T10:03:54.314Z,101456.19
2022-09-23T10:07:07.292Z,101447.72
2022-09-23T10:10:31.793Z,101447.25
2022-09-23T10:13:30.236Z,101444.03
2022-09-23T10:16:27.709Z,101429.59
2022-09-23T10:19:27.177Z,101433.06
2022-09-23T10:22:26.365Z,101433.25
2022-09-23T10:25:27.625Z,101438.31
2022-09-23T10:28:32.456Z,101448.19
2022-09-23T10:31:33.767Z,101445.13
2022-09-23T10:34:31.009Z,101444.25
2022-09-23T10:37:34.768Z,101450.75
2022-09-23T10:40:58.226Z,101436.69
2022-09-23T10:44:23.503Z,101436.22
2022-09-23T10:47:29.392Z,101435.50
2022-09-23T10:50:30.627Z,101436.31
2022-09-23T10:53:53.876Z,101437.66
2022-09-23T10:57:01.949Z,101423.50
2022-09-23T11:00:03.456Z,101418.59
2022-09-23T11:03:25.303Z,101416.66
2022-09-23T11:06:53.092Z,101427.75
2022-09-23T11:10:46.560Z,101423.44
2022-09-23T11:14:04.358Z,101422.81
2022-09-23T11:17:25.918Z,101413.03
2022-09-23T11:20:37.743Z,101413.53
2022-09-23T11:23:34.687Z,101400.16
2022-09-23T11:27:01.263Z,101409.28
2022-09-23T11:30:16.913Z,101405.91
2022-09-23T11:33:32.678Z,101398.22
2022-09-23T11:36:35.678Z,101392.97
2022-09-23T11:39:36.646Z,101380.50
2022-09-23T11:42:46.904Z,101378.44
2022-09-23T11:46:10.332Z,101374.75
2022-09-23T11:49:19.190Z,101388.00
2022-09-23T11:52:27.958Z,101393.09
2022-09-23T11:55:27.515Z,101377.44
2022-09-23T11:58:42.363Z,101379.41
2022-09-23T12:02:15.073Z,101372.53
2022-09-23T12:05:17.786Z,101371.59
2022-09-23T12:08:23.389Z,101378.69
2022-09-23T12:11:27.318Z,101382.09
2022-09-23T12:14:26.740Z,101376.59
2022-09-23T12:17:51.612Z,101372.47
2022-09-23T12:21:05.669Z,101366.31
2022-09-23T12:24:09.245Z,101365.38
2022-09-23T12:27:11.020Z,101368.50
2022-09-23T12:30:24.858Z,101370.81
2022-09-23T12:33:24.575Z,101375.47
2022-09-23T12:36:41.343Z,101377.34
2022-09-23T12:39:38.645Z,101370.44
2022-09-23T12:42:36.738Z,101362.31
2022-09-23T12:45:35.489Z,101358.66
2022-09-23T12:49:08.686Z,101348.06
2022-09-23T12:52:11.814Z,101341.63
2022-09-23T12:55:24.445Z,101348.81
2022-09-23T12:58:39.239Z,101366.84
2022-09-23T13:01:37.012Z,101357.22
2022-09-23T13:05:03.764Z,101359.34
2022-09-23T13:08:20.848Z,101354.25
2022-09-23T13:11:30.777Z,101345.16
2022-09-23T13:14:28.639Z,101341.56
2022-09-23T13:17:39.173Z,101349.53
2022-09-23T13:20:38.347Z,101345.13
2022-09-23T13:23:35.407Z,101333.53
2022-09-23T13:26:32.087Z,101333.09
2022-09-23T13:29:42.532Z,101334.44
2022-09-23T13:32:52.009Z,101337.84
2022-09-23T13:35:50.885Z,101323.06
2022-09-23T13:38:48.391Z,101323.00
2022-09-23T13:41:45.308Z,101334.44
2022-09-23T13:44:42.038Z,101330.13
2022-09-23T13:47:40.298Z,101341.31
2022-09-23T13:50:38.649Z,101334.16
2022-09-23T13:53:36.025Z,101319.19
2022-09-23T13:56:33.667Z,101325.66
2022-09-23T13:59:41.634Z,101313.91
2022-09-23T14:02:47.023Z,101324.63
2022-09-23T14:05:44.025Z,101324.56
2022-09-23T14:08:48.276Z,101324.75
2022-09-23T14:11:44.965Z,101327.72
2022-09-23T14:14:42.043Z,101322.50
2022-09-23T14:17:39.101Z,101309.22
2022-09-23T14:20:45.850Z,101307.16
2022-09-23T14:23:46.364Z,101298.34
2022-09-23T14:26:44.269Z,101296.84
2022-09-23T14:29:42.730Z,101295.63
2022-09-23T14:32:40.791Z,101301.88
2022-09-23T14:35:42.847Z,101291.16
2022-09-23T14:38:51.883Z,101298.56
2022-09-23T14:41:49.337Z,101299.47
2022-09-23T14:44:49.775Z,101287.56
2022-09-23T14:47:51.947Z,101290.09
2022-09-23T14:50:51.400Z,101279.84
2022-09-23T14:53:48.815Z,101289.78
2022-09-23T14:56:45.868Z,101289.47
2022-09-23T14:59:51.832Z,101298.13
2022-09-23T15:03:02.030Z,101292.78
2022-09-23T15:06:05.061Z,101282.56
2022-09-23T15:09:05.328Z,101263.53
2022-09-23T15:12:05.795Z,101277.75
2022-09-23T15:15:03.584Z,101279.53
2022-09-23T15:18:13.735Z,101278.66
2022-09-23T15:21:13.129Z,101269.06
2022-09-23T15:24:40.435Z,101274.59
2022-09-23T15:27:37.204Z,101272.94
2022-09-23T15:30:38.207Z,101280.78
2022-09-23T15:33:35.943Z,101262.84
2022-09-23T15:36:33.336Z,101280.53
2022-09-23T15:39:36.246Z,101280.16
2022-09-23T15:42:34.428Z,101277.50
2022-09-23T15:45:33.914Z,101274.63
2022-09-23T15:48:35.905Z,101284.09
2022-09-23T15:51:33.272Z,101281.72
2022-09-23T15:54:32.406Z,101271.97
2022-09-23T15:57:29.368Z,101267.50
2022-09-23T16:00:26.181Z,101266.66
2022-09-23T16:03:28.446Z,101265.47
2022-09-23T16:06:27.031Z,101257.63
2022-09-23T16:09:25.144Z,101259.97
2022-09-23T16:12:22.509Z,101254.63
2022-09-23T16:15:20.884Z,101252.53
2022-09-23T16:18:19.265Z,101256.13
2022-09-23T16:21:18.472Z,101246.28
2022-09-23T16:24:17.525Z,101245.03
2022-09-23T16:27:14.524Z,101246.28
2022-09-23T16:30:11.784Z,101249.50
2022-09-23T16:33:09.214Z,101244.56
2022-09-23T16:36:08.027Z,101240.47
2022-09-23T16:39:06.933Z,101230.63
2022-09-23T16:42:04.932Z,101234.69
2022-09-23T16:45:02.361Z,101244.56
2022-09-23T16:48:00.055Z,101250.31
2022-09-23T16:50:57.375Z,101245.78
2022-09-23T16:53:55.586Z,101238.72
2022-09-23T16:56:54.266Z,101239.09
2022-09-23T17:00:10.231Z,101247.84
2022-09-23T17:03:26.232Z,101252.66
2022-09-23T17:06:25.110Z,101243.47
2022-09-23T17:09:28.839Z,101239.75
2022-09-23T17:12:29.051Z,101235.59
2022-09-23T17:15:26.726Z,101237.13
2022-09-23T17:18:24.757Z,101248.50
2022-09-23T17:21:26.815Z,101244.78
2022-09-23T17:24:24.190Z,101243.56
2022-09-23T17:27:21.485Z,101237.00
2022-09-23T17:30:18.655Z,101238.25
2022-09-23T17:33:16.657Z,101243.16
2022-09-23T17:36:14.745Z,101247.25
2022-09-23T17:39:12.724Z,101244.38
2022-09-23T17:42:10.299Z,101243.72
2022-09-23T17:45:08.672Z,101255.13
2022-09-23T17:48:06.493Z,101246.06
2022-09-23T17:51:08.236Z,101244.69
2022-09-23T17:54:06.324Z,101240.19
2022-09-23T17:57:03.536Z,101241.72
2022-09-23T18:00:00.353Z,101241.72
2022-09-23T18:02:57.516Z,101245.97
2022-09-23T18:05:54.649Z,101246.84
2022-09-23T18:08:51.646Z,101246.44
2022-09-23T18:11:49.940Z,101247.63
2022-09-23T18:14:48.332Z,101248.03
2022-09-23T18:17:45.669Z,101257.59
2022-09-23T18:20:43.106Z,101254.41
2022-09-23T18:23:40.606Z,101249.44
2022-09-23T18:26:38.255Z,101250.19
2022-09-23T18:29:35.664Z,101246.44
2022-09-23T18:32:33.481Z,101246.84
2022-09-23T18:35:30.778Z,101244.25
2022-09-23T18:38:28.687Z,101242.03
2022-09-23T18:41:26.995Z,101225.16
2022-09-23T18:44:24.999Z,101229.47
2022-09-23T18:47:43.682Z,101228.97
2022-09-23T18:50:40.306Z,101226.25
2022-09-23T18:53:37.295Z,101233.75
2022-09-23T18:56:41.025Z,101234.16
2022-09-23T18:59:38.370Z,101242.47
2022-09-23T19:02:35.431Z,101244.94
2022-09-23T19:05:35.426Z,101252.72
2022-09-23T19:08:32.612Z,101249.88
2022-09-23T19:11:29.180Z,101266.38
2022-09-23T19:14:26.753Z,101263.56
2022-09-23T19:17:24.478Z,101254.00
2022-09-23T19:20:22.784Z,101250.59
2022-09-23T19:23:20.703Z,101245.03
2022-09-23T19:26:28.484Z,101249.03
2022-09-23T19:29:25.524Z,101243.72
2022-09-23T19:32:24.605Z,101238.16
2022-09-23T19:35:21.286Z,101240.34
2022-09-23T19:38:20.181Z,101238.06
2022-09-23T19:41:17.396Z,101231.28
2022-09-23T19:44:14.906Z,101232.28
2022-09-23T19:47:15.701Z,101228.06
2022-09-23T19:50:12.830Z,101232.72
2022-09-23T19:53:10.551Z,101235.69
2022-09-23T19:56:07.493Z,101232.59
2022-09-23T19:59:07.262Z,101235.28
2022-09-23T20:02:04.406Z,101239.84
2022-09-23T20:05:01.910Z,101246.75
2022-09-23T20:07:59.838Z,101238.03
2022-09-23T20:10:57.664Z,101231.22
2022-09-23T20:14:01.785Z,101229.47
2022-09-23T20:17:00.394Z,101228.16
2022-09-23T20:19:57.975Z,101231.56
2022-09-23T20:22:55.683Z,101233.16
2022-09-23T20:26:14.995Z,101223.47
2022-09-23T20:29:12.847Z,101222.63
2022-09-23T20:32:11.302Z,101216.88
2022-09-23T20:35:08.860Z,101229.28
2022-09-23T20:38:08.152Z,101224.81
2022-09-23T20:41:06.778Z,101224.22
2022-09-23T20:44:06.223Z,101224.47
2022-09-23T20:47:03.618Z,101226.50
2022-09-23T20:50:00.450Z,101214.97
2022-09-23T20:52:57.977Z,101220.91
2022-09-23T20:55:56.563Z,101218.06
2022-09-23T20:58:54.287Z,101214.75
2022-09-23T21:01:55.527Z,101210.22
2022-09-23T21:04:53.470Z,101211.13
2022-09-23T21:07:51.229Z,101207.09
2022-09-23T21:10:58.269Z,101206.31
2022-09-23T21:13:55.555Z,101208.00
2022-09-23T21:16:54.723Z,101198.81
2022-09-23T21:19:51.744Z,101200.50
2022-09-23T21:22:51.540Z,101204.19
2022-09-23T21:25:48.394Z,101198.50
2022-09-23T21:28:47.077Z,101195.13
2022-09-23T21:31:45.063Z,101205.91
2022-09-23T21:34:42.963Z,101198.81
2022-09-23T21:37:40.714Z,101203.72
2022-09-23T21:40:55.945Z,101205.22
2022-09-23T21:43:55.628Z,101203.47
2022-09-23T21:46:54.378Z,101206.00
2022-09-23T21:49:51.905Z,101200.06
2022-09-23T21:52:51.954Z,101200.94
2022-09-23T21:55:49.895Z,101193.34
2022-09-23T21:58:47.437Z,101195.25
2022-09-23T22:01:53.998Z,101195.63
2022-09-23T22:04:51.610Z,101194.44
2022-09-23T22:07:48.442Z,101193.81
2022-09-23T22:10:45.655Z,101184.59
2022-09-23T22:13:42.670Z,101191.03
2022-09-23T22:16:39.929Z,101187.94
2022-09-23T22:19:42.744Z,101187.03
2022-09-23T22:22:43.995Z,101187.81
2022-09-23T22:25:41.919Z,101183.00
2022-09-23T22:28:57.986Z,101182.81
2022-09-23T22:32:14.622Z,101183.63
2022-09-23T22:35:12.965Z,101173.84
2022-09-23T22:38:10.899Z,101170.63
2022-09-23T22:41:08.472Z,101168.03
2022-09-23T22:44:05.526Z,101168.59
2022-09-23T22:47:03.167Z,101168.09
2022-09-23T22:50:01.021Z,101153.97
2022-09-23T22:52:58.873Z,101157.91
2022-09-23T22:56:02.033Z,101157.59
2022-09-23T22:59:06.031Z,101159.44
2022-09-23T23:02:04.003Z,101153.06
2022-09-23T23:05:02.285Z,101145.94
2022-09-23T23:07:59.456Z,101144.38
2022-09-23T23:10:57.200Z,101145.28
2022-09-23T23:13:54.697Z,101146.69
2022-09-23T23:16:52.156Z,101141.25
2022-09-23T23:19:51.015Z,101140.72
2022-09-23T23:22:48.607Z,101139.84
2022-09-23T23:25:45.618Z,101137.56
2022-09-23T23:28:43.642Z,101141.22
2022-09-23T23:31:40.832Z,101135.56
2022-09-23T23:34:37.645Z,101134.28
2022-09-23T23:37:34.656Z,101135.09
2022-09-23T23:40:31.586Z,101133.25
2022-09-23T23:43:28.698Z,101128.63
2022-09-23T23:46:27.736Z,101120.91
2022-09-23T23:49:24.483Z,101123.88
2022-09-23T23:52:21.657Z,101130.56
2022-09-23T23:55:20.022Z,101128.72
2022-09-23T23:58:18.138Z,101120.97
